Terminal Aerodrome Forecast
Issued by NWS

Home | Current Version | Previous Version | Text Only | Print | Product List | Glossary On
Versions: 1 2 3 4 5 6 7 8 9 10 11 12 13 14 15 16 17 18 19 20 21 22 23 24 25 26 27 28 29 30 31 32 33 34
189
FTUS41 KCAR 270239 AAA
TAFFVE
TAF AMD
KFVE 270239Z 2703/2724 28008KT P6SM SCT040 BKN100
     FM270800 24005KT P6SM BKN035
     FM271300 22011KT P6SM VCSH BKN035
     FM271900 27015G25KT P6SM VCSH BKN035=

USA.gov is the U.S. government's official web portal to all federal, state and local government web resources and services.